sensor_id;sensor_type;location;lat;lon;timestamp;P1;durP1;ratioP1;P2;durP2;ratioP2
59442;SDS011;45247;47.466;19.004;2022-11-11T00:00:59;32.25;;;16.65;;
59442;SDS011;45247;47.466;19.004;2022-11-11T00:03:28;27.38;;;13.73;;
59442;SDS011;45247;47.466;19.004;2022-11-11T00:06:00;38.80;;;15.35;;
59442;SDS011;45247;47.466;19.004;2022-11-11T00:08:29;28.08;;;13.88;;
59442;SDS011;45247;47.466;19.004;2022-11-11T00:10:59;32.63;;;15.18;;
59442;SDS011;45247;47.466;19.004;2022-11-11T00:13:28;27.50;;;13.95;;
59442;SDS011;45247;47.466;19.004;2022-11-11T00:16:02;38.90;;;14.65;;
59442;SDS011;45247;47.466;19.004;2022-11-11T00:18:33;26.65;;;13.18;;
59442;SDS011;45247;47.466;19.004;2022-11-11T00:21:20;25.02;;;13.85;;
59442;SDS011;45247;47.466;19.004;2022-11-11T00:24:12;27.25;;;12.60;;
59442;SDS011;45247;47.466;19.004;2022-11-11T00:27:05;32.05;;;13.48;;
59442;SDS011;45247;47.466;19.004;2022-11-11T00:29:33;20.20;;;12.20;;
59442;SDS011;45247;47.466;19.004;2022-11-11T00:32:03;28.38;;;13.35;;
59442;SDS011;45247;47.466;19.004;2022-11-11T00:34:50;29.00;;;13.18;;
59442;SDS011;45247;47.466;19.004;2022-11-11T00:37:38;24.73;;;12.48;;
59442;SDS011;45247;47.466;19.004;2022-11-11T00:40:07;25.40;;;12.93;;
59442;SDS011;45247;47.466;19.004;2022-11-11T00:42:37;22.17;;;11.73;;
59442;SDS011;45247;47.466;19.004;2022-11-11T00:45:06;23.13;;;11.38;;
59442;SDS011;45247;47.466;19.004;2022-11-11T00:47:37;27.00;;;12.63;;
59442;SDS011;45247;47.466;19.004;2022-11-11T00:50:37;24.00;;;12.10;;
59442;SDS011;45247;47.466;19.004;2022-11-11T00:53:24;24.85;;;13.27;;
59442;SDS011;45247;47.466;19.004;2022-11-11T00:55:54;26.88;;;12.77;;
59442;SDS011;45247;47.466;19.004;2022-11-11T00:58:23;27.98;;;13.45;;
59442;SDS011;45247;47.466;19.004;2022-11-11T01:00:54;22.33;;;12.52;;
59442;SDS011;45247;47.466;19.004;2022-11-11T01:03:22;26.77;;;13.48;;
59442;SDS011;45247;47.466;19.004;2022-11-11T01:05:50;27.80;;;14.20;;
59442;SDS011;45247;47.466;19.004;2022-11-11T01:08:18;25.08;;;13.30;;
59442;SDS011;45247;47.466;19.004;2022-11-11T01:10:48;24.95;;;12.80;;
59442;SDS011;45247;47.466;19.004;2022-11-11T01:13:17;24.33;;;12.45;;
59442;SDS011;45247;47.466;19.004;2022-11-11T01:15:48;22.42;;;12.43;;
59442;SDS011;45247;47.466;19.004;2022-11-11T01:18:19;21.83;;;12.70;;
59442;SDS011;45247;47.466;19.004;2022-11-11T01:20:56;27.05;;;12.93;;
59442;SDS011;45247;47.466;19.004;2022-11-11T01:23:25;24.40;;;13.73;;
59442;SDS011;45247;47.466;19.004;2022-11-11T01:25:59;23.55;;;12.07;;
59442;SDS011;45247;47.466;19.004;2022-11-11T01:28:28;29.42;;;14.30;;
59442;SDS011;45247;47.466;19.004;2022-11-11T01:31:00;25.50;;;13.30;;
59442;SDS011;45247;47.466;19.004;2022-11-11T01:36:01;26.90;;;12.90;;
59442;SDS011;45247;47.466;19.004;2022-11-11T01:38:31;24.77;;;11.80;;
59442;SDS011;45247;47.466;19.004;2022-11-11T01:41:00;23.00;;;12.13;;
59442;SDS011;45247;47.466;19.004;2022-11-11T01:43:50;24.92;;;12.88;;
59442;SDS011;45247;47.466;19.004;2022-11-11T01:46:20;21.60;;;12.13;;
59442;SDS011;45247;47.466;19.004;2022-11-11T01:48:55;26.65;;;13.52;;
59442;SDS011;45247;47.466;19.004;2022-11-11T01:51:52;33.30;;;14.63;;
59442;SDS011;45247;47.466;19.004;2022-11-11T01:54:26;21.90;;;12.23;;
59442;SDS011;45247;47.466;19.004;2022-11-11T01:57:00;23.48;;;13.27;;
59442;SDS011;45247;47.466;19.004;2022-11-11T01:59:31;27.95;;;13.40;;
59442;SDS011;45247;47.466;19.004;2022-11-11T02:02:01;21.77;;;12.32;;
59442;SDS011;45247;47.466;19.004;2022-11-11T02:04:32;31.20;;;14.50;;
59442;SDS011;45247;47.466;19.004;2022-11-11T02:07:19;29.67;;;15.25;;
59442;SDS011;45247;47.466;19.004;2022-11-11T02:09:49;25.85;;;13.77;;
59442;SDS011;45247;47.466;19.004;2022-11-11T02:12:20;25.77;;;14.25;;
59442;SDS011;45247;47.466;19.004;2022-11-11T02:15:06;31.40;;;14.60;;
59442;SDS011;45247;47.466;19.004;2022-11-11T02:17:35;25.42;;;13.55;;
59442;SDS011;45247;47.466;19.004;2022-11-11T02:20:03;31.73;;;14.38;;
59442;SDS011;45247;47.466;19.004;2022-11-11T02:22:35;28.23;;;14.88;;
59442;SDS011;45247;47.466;19.004;2022-11-11T02:25:10;28.63;;;13.65;;
59442;SDS011;45247;47.466;19.004;2022-11-11T02:27:42;28.63;;;14.23;;
59442;SDS011;45247;47.466;19.004;2022-11-11T02:30:15;29.10;;;14.55;;
59442;SDS011;45247;47.466;19.004;2022-11-11T02:32:47;32.05;;;15.48;;
59442;SDS011;45247;47.466;19.004;2022-11-11T02:35:18;26.75;;;14.27;;
59442;SDS011;45247;47.466;19.004;2022-11-11T02:37:48;34.35;;;15.57;;
59442;SDS011;45247;47.466;19.004;2022-11-11T02:40:22;35.15;;;17.23;;
59442;SDS011;45247;47.466;19.004;2022-11-11T02:42:53;36.38;;;17.98;;
59442;SDS011;45247;47.466;19.004;2022-11-11T02:45:21;39.60;;;19.52;;
59442;SDS011;45247;47.466;19.004;2022-11-11T02:47:49;33.17;;;18.88;;
59442;SDS011;45247;47.466;19.004;2022-11-11T02:50:17;39.45;;;18.08;;
59442;SDS011;45247;47.466;19.004;2022-11-11T02:52:45;38.40;;;18.00;;
59442;SDS011;45247;47.466;19.004;2022-11-11T02:55:14;37.53;;;19.67;;
59442;SDS011;45247;47.466;19.004;2022-11-11T02:57:43;39.03;;;20.25;;
59442;SDS011;45247;47.466;19.004;2022-11-11T03:00:12;38.15;;;18.73;;
59442;SDS011;45247;47.466;19.004;2022-11-11T03:02:41;50.88;;;22.08;;
59442;SDS011;45247;47.466;19.004;2022-11-11T03:05:09;42.17;;;20.52;;
59442;SDS011;45247;47.466;19.004;2022-11-11T03:07:37;39.50;;;19.75;;
59442;SDS011;45247;47.466;19.004;2022-11-11T03:10:06;33.97;;;17.60;;
59442;SDS011;45247;47.466;19.004;2022-11-11T03:12:34;39.97;;;18.75;;
59442;SDS011;45247;47.466;19.004;2022-11-11T03:15:05;40.55;;;19.55;;
59442;SDS011;45247;47.466;19.004;2022-11-11T03:17:34;41.83;;;19.05;;
59442;SDS011;45247;47.466;19.004;2022-11-11T03:20:08;41.40;;;19.42;;
59442;SDS011;45247;47.466;19.004;2022-11-11T03:22:59;37.50;;;17.58;;
59442;SDS011;45247;47.466;19.004;2022-11-11T03:25:28;31.83;;;17.10;;
59442;SDS011;45247;47.466;19.004;2022-11-11T03:28:06;38.38;;;18.90;;
59442;SDS011;45247;47.466;19.004;2022-11-11T03:30:36;36.92;;;18.75;;
59442;SDS011;45247;47.466;19.004;2022-11-11T03:33:05;37.17;;;16.45;;
59442;SDS011;45247;47.466;19.004;2022-11-11T03:35:34;36.63;;;19.48;;
59442;SDS011;45247;47.466;19.004;2022-11-11T03:38:03;32.55;;;17.48;;
59442;SDS011;45247;47.466;19.004;2022-11-11T03:40:50;43.78;;;19.70;;
59442;SDS011;45247;47.466;19.004;2022-11-11T03:43:20;30.55;;;17.48;;
59442;SDS011;45247;47.466;19.004;2022-11-11T03:45:53;38.80;;;18.77;;
59442;SDS011;45247;47.466;19.004;2022-11-11T03:48:22;34.72;;;18.83;;
59442;SDS011;45247;47.466;19.004;2022-11-11T03:50:52;35.45;;;18.60;;
59442;SDS011;45247;47.466;19.004;2022-11-11T03:53:20;35.67;;;18.55;;
59442;SDS011;45247;47.466;19.004;2022-11-11T03:55:49;32.95;;;16.65;;
59442;SDS011;45247;47.466;19.004;2022-11-11T03:58:18;37.75;;;18.48;;
59442;SDS011;45247;47.466;19.004;2022-11-11T04:00:46;40.70;;;19.05;;
59442;SDS011;45247;47.466;19.004;2022-11-11T04:03:16;31.13;;;16.92;;
59442;SDS011;45247;47.466;19.004;2022-11-11T04:06:03;37.42;;;17.92;;
59442;SDS011;45247;47.466;19.004;2022-11-11T04:08:49;38.00;;;18.17;;
59442;SDS011;45247;47.466;19.004;2022-11-11T04:11:35;34.42;;;18.27;;
59442;SDS011;45247;47.466;19.004;2022-11-11T04:14:06;36.95;;;19.10;;
59442;SDS011;45247;47.466;19.004;2022-11-11T04:16:53;37.47;;;19.65;;
59442;SDS011;45247;47.466;19.004;2022-11-11T04:19:23;42.03;;;21.50;;
59442;SDS011;45247;47.466;19.004;2022-11-11T04:22:09;44.10;;;20.90;;
59442;SDS011;45247;47.466;19.004;2022-11-11T04:24:38;50.42;;;22.73;;
59442;SDS011;45247;47.466;19.004;2022-11-11T04:27:24;37.83;;;19.33;;
59442;SDS011;45247;47.466;19.004;2022-11-11T04:29:52;35.10;;;17.73;;
59442;SDS011;45247;47.466;19.004;2022-11-11T04:32:20;42.50;;;18.58;;
59442;SDS011;45247;47.466;19.004;2022-11-11T04:35:11;44.30;;;20.10;;
59442;SDS011;45247;47.466;19.004;2022-11-11T04:37:43;46.65;;;20.67;;
59442;SDS011;45247;47.466;19.004;2022-11-11T04:40:13;49.70;;;22.23;;
59442;SDS011;45247;47.466;19.004;2022-11-11T04:42:59;40.70;;;20.98;;
59442;SDS011;45247;47.466;19.004;2022-11-11T04:45:27;45.78;;;21.83;;
59442;SDS011;45247;47.466;19.004;2022-11-11T04:47:54;51.88;;;24.33;;
59442;SDS011;45247;47.466;19.004;2022-11-11T04:50:25;42.47;;;20.80;;
59442;SDS011;45247;47.466;19.004;2022-11-11T04:52:54;41.75;;;20.08;;
59442;SDS011;45247;47.466;19.004;2022-11-11T04:55:23;44.90;;;22.30;;
59442;SDS011;45247;47.466;19.004;2022-11-11T04:58:09;47.35;;;22.92;;
59442;SDS011;45247;47.466;19.004;2022-11-11T05:00:37;54.72;;;25.65;;
59442;SDS011;45247;47.466;19.004;2022-11-11T05:03:06;59.35;;;26.40;;
59442;SDS011;45247;47.466;19.004;2022-11-11T05:05:44;50.05;;;25.52;;
59442;SDS011;45247;47.466;19.004;2022-11-11T05:08:31;48.17;;;24.08;;
59442;SDS011;45247;47.466;19.004;2022-11-11T05:11:18;56.20;;;25.77;;
59442;SDS011;45247;47.466;19.004;2022-11-11T05:13:47;60.47;;;26.65;;
59442;SDS011;45247;47.466;19.004;2022-11-11T05:16:33;59.97;;;25.58;;
59442;SDS011;45247;47.466;19.004;2022-11-11T05:19:22;53.80;;;25.40;;
59442;SDS011;45247;47.466;19.004;2022-11-11T05:22:10;53.03;;;25.67;;
59442;SDS011;45247;47.466;19.004;2022-11-11T05:24:41;52.60;;;23.77;;
59442;SDS011;45247;47.466;19.004;2022-11-11T05:27:27;53.28;;;25.52;;
59442;SDS011;45247;47.466;19.004;2022-11-11T05:29:55;46.17;;;22.35;;
59442;SDS011;45247;47.466;19.004;2022-11-11T05:32:24;46.40;;;24.05;;
59442;SDS011;45247;47.466;19.004;2022-11-11T05:34:52;47.00;;;23.08;;
59442;SDS011;45247;47.466;19.004;2022-11-11T05:37:22;50.88;;;24.35;;
59442;SDS011;45247;47.466;19.004;2022-11-11T05:39:50;52.08;;;24.10;;
59442;SDS011;45247;47.466;19.004;2022-11-11T05:42:18;50.63;;;25.83;;
59442;SDS011;45247;47.466;19.004;2022-11-11T05:44:46;46.80;;;23.38;;
59442;SDS011;45247;47.466;19.004;2022-11-11T05:47:14;46.53;;;23.65;;
59442;SDS011;45247;47.466;19.004;2022-11-11T05:49:43;46.08;;;23.58;;
59442;SDS011;45247;47.466;19.004;2022-11-11T05:52:11;48.88;;;25.52;;
59442;SDS011;45247;47.466;19.004;2022-11-11T05:54:43;59.83;;;26.88;;
59442;SDS011;45247;47.466;19.004;2022-11-11T05:57:12;55.45;;;27.42;;
59442;SDS011;45247;47.466;19.004;2022-11-11T05:59:40;59.50;;;27.55;;
59442;SDS011;45247;47.466;19.004;2022-11-11T06:02:09;52.33;;;26.08;;
59442;SDS011;45247;47.466;19.004;2022-11-11T06:04:37;52.30;;;25.08;;
59442;SDS011;45247;47.466;19.004;2022-11-11T06:07:05;49.45;;;24.95;;
59442;SDS011;45247;47.466;19.004;2022-11-11T06:09:33;48.55;;;23.45;;
59442;SDS011;45247;47.466;19.004;2022-11-11T06:12:03;50.55;;;24.70;;
59442;SDS011;45247;47.466;19.004;2022-11-11T06:14:31;49.03;;;23.73;;
59442;SDS011;45247;47.466;19.004;2022-11-11T06:16:59;47.60;;;24.17;;
59442;SDS011;45247;47.466;19.004;2022-11-11T06:19:27;42.42;;;23.10;;
59442;SDS011;45247;47.466;19.004;2022-11-11T06:21:55;52.45;;;23.98;;
59442;SDS011;45247;47.466;19.004;2022-11-11T06:24:23;44.22;;;22.67;;
59442;SDS011;45247;47.466;19.004;2022-11-11T06:26:52;44.35;;;23.08;;
59442;SDS011;45247;47.466;19.004;2022-11-11T06:29:21;50.95;;;24.13;;
59442;SDS011;45247;47.466;19.004;2022-11-11T06:31:49;42.25;;;21.48;;
59442;SDS011;45247;47.466;19.004;2022-11-11T06:34:18;46.08;;;22.83;;
59442;SDS011;45247;47.466;19.004;2022-11-11T06:36:46;43.08;;;22.73;;
59442;SDS011;45247;47.466;19.004;2022-11-11T06:39:14;47.35;;;21.95;;
59442;SDS011;45247;47.466;19.004;2022-11-11T06:41:42;38.30;;;21.17;;
59442;SDS011;45247;47.466;19.004;2022-11-11T06:44:11;37.80;;;20.63;;
59442;SDS011;45247;47.466;19.004;2022-11-11T06:46:40;38.60;;;19.45;;
59442;SDS011;45247;47.466;19.004;2022-11-11T06:49:08;34.13;;;19.13;;
59442;SDS011;45247;47.466;19.004;2022-11-11T06:51:36;37.60;;;19.73;;
59442;SDS011;45247;47.466;19.004;2022-11-11T06:54:04;41.53;;;21.67;;
59442;SDS011;45247;47.466;19.004;2022-11-11T06:56:33;52.22;;;26.40;;
59442;SDS011;45247;47.466;19.004;2022-11-11T06:59:01;38.88;;;22.27;;
59442;SDS011;45247;47.466;19.004;2022-11-11T07:01:29;36.90;;;22.40;;
59442;SDS011;45247;47.466;19.004;2022-11-11T07:03:58;61.38;;;32.25;;
59442;SDS011;45247;47.466;19.004;2022-11-11T07:06:26;48.75;;;26.45;;
59442;SDS011;45247;47.466;19.004;2022-11-11T07:08:55;45.67;;;24.45;;
59442;SDS011;45247;47.466;19.004;2022-11-11T07:11:23;41.08;;;22.70;;
59442;SDS011;45247;47.466;19.004;2022-11-11T07:13:51;42.92;;;21.95;;
59442;SDS011;45247;47.466;19.004;2022-11-11T07:16:19;52.25;;;24.33;;
59442;SDS011;45247;47.466;19.004;2022-11-11T07:18:47;44.50;;;23.23;;
59442;SDS011;45247;47.466;19.004;2022-11-11T07:21:16;39.63;;;21.35;;
59442;SDS011;45247;47.466;19.004;2022-11-11T07:23:44;43.33;;;23.25;;
59442;SDS011;45247;47.466;19.004;2022-11-11T07:26:12;48.00;;;24.00;;
59442;SDS011;45247;47.466;19.004;2022-11-11T07:28:40;40.70;;;22.85;;
59442;SDS011;45247;47.466;19.004;2022-11-11T07:31:08;46.97;;;25.15;;
59442;SDS011;45247;47.466;19.004;2022-11-11T07:33:36;44.47;;;23.05;;
59442;SDS011;45247;47.466;19.004;2022-11-11T07:36:04;47.97;;;26.08;;
59442;SDS011;45247;47.466;19.004;2022-11-11T07:38:34;44.85;;;23.40;;
59442;SDS011;45247;47.466;19.004;2022-11-11T07:41:02;41.25;;;22.10;;
59442;SDS011;45247;47.466;19.004;2022-11-11T07:43:31;39.70;;;21.90;;
59442;SDS011;45247;47.466;19.004;2022-11-11T07:45:59;44.38;;;22.58;;
59442;SDS011;45247;47.466;19.004;2022-11-11T07:48:27;42.67;;;21.83;;
59442;SDS011;45247;47.466;19.004;2022-11-11T07:50:55;38.92;;;20.52;;
59442;SDS011;45247;47.466;19.004;2022-11-11T07:53:23;43.33;;;21.35;;
59442;SDS011;45247;47.466;19.004;2022-11-11T07:55:55;37.42;;;21.88;;
59442;SDS011;45247;47.466;19.004;2022-11-11T07:58:23;38.10;;;21.77;;
59442;SDS011;45247;47.466;19.004;2022-11-11T08:00:51;33.53;;;20.08;;
59442;SDS011;45247;47.466;19.004;2022-11-11T08:03:19;38.10;;;20.45;;
59442;SDS011;45247;47.466;19.004;2022-11-11T08:05:48;36.90;;;19.92;;
59442;SDS011;45247;47.466;19.004;2022-11-11T08:08:16;35.60;;;19.75;;
59442;SDS011;45247;47.466;19.004;2022-11-11T08:10:46;40.78;;;21.08;;
59442;SDS011;45247;47.466;19.004;2022-11-11T08:13:15;36.58;;;20.10;;
59442;SDS011;45247;47.466;19.004;2022-11-11T08:16:01;36.40;;;19.63;;
59442;SDS011;45247;47.466;19.004;2022-11-11T08:18:31;32.75;;;17.92;;
59442;SDS011;45247;47.466;19.004;2022-11-11T08:21:00;37.67;;;19.92;;
59442;SDS011;45247;47.466;19.004;2022-11-11T08:23:29;36.58;;;19.85;;
59442;SDS011;45247;47.466;19.004;2022-11-11T08:26:21;30.88;;;17.00;;
59442;SDS011;45247;47.466;19.004;2022-11-11T08:28:56;26.83;;;16.75;;
59442;SDS011;45247;47.466;19.004;2022-11-11T08:31:25;30.85;;;17.20;;
59442;SDS011;45247;47.466;19.004;2022-11-11T08:33:53;27.05;;;15.40;;
59442;SDS011;45247;47.466;19.004;2022-11-11T08:36:21;28.38;;;15.82;;
59442;SDS011;45247;47.466;19.004;2022-11-11T08:38:51;27.80;;;14.85;;
59442;SDS011;45247;47.466;19.004;2022-11-11T08:41:19;22.73;;;14.57;;
59442;SDS011;45247;47.466;19.004;2022-11-11T08:43:52;29.23;;;15.40;;
59442;SDS011;45247;47.466;19.004;2022-11-11T08:46:22;26.40;;;16.17;;
59442;SDS011;45247;47.466;19.004;2022-11-11T08:48:51;25.25;;;14.48;;
59442;SDS011;45247;47.466;19.004;2022-11-11T08:51:19;25.60;;;14.32;;
59442;SDS011;45247;47.466;19.004;2022-11-11T08:53:47;28.70;;;14.77;;
59442;SDS011;45247;47.466;19.004;2022-11-11T08:56:15;29.65;;;15.02;;
59442;SDS011;45247;47.466;19.004;2022-11-11T08:58:43;29.35;;;13.48;;
59442;SDS011;45247;47.466;19.004;2022-11-11T09:01:12;25.33;;;13.63;;
59442;SDS011;45247;47.466;19.004;2022-11-11T09:03:42;27.10;;;14.45;;
59442;SDS011;45247;47.466;19.004;2022-11-11T09:06:11;29.92;;;14.75;;
59442;SDS011;45247;47.466;19.004;2022-11-11T09:08:40;22.70;;;14.25;;
59442;SDS011;45247;47.466;19.004;2022-11-11T09:11:09;26.80;;;15.52;;
59442;SDS011;45247;47.466;19.004;2022-11-11T09:13:40;28.13;;;15.65;;
59442;SDS011;45247;47.466;19.004;2022-11-11T09:16:08;25.40;;;13.10;;
59442;SDS011;45247;47.466;19.004;2022-11-11T09:18:36;25.80;;;15.10;;
59442;SDS011;45247;47.466;19.004;2022-11-11T09:21:06;24.83;;;14.18;;
59442;SDS011;45247;47.466;19.004;2022-11-11T09:23:34;29.23;;;15.48;;
59442;SDS011;45247;47.466;19.004;2022-11-11T09:26:02;26.58;;;15.57;;
59442;SDS011;45247;47.466;19.004;2022-11-11T09:28:30;30.60;;;16.02;;
59442;SDS011;45247;47.466;19.004;2022-11-11T09:30:59;27.67;;;15.65;;
59442;SDS011;45247;47.466;19.004;2022-11-11T09:33:48;25.50;;;15.50;;
59442;SDS011;45247;47.466;19.004;2022-11-11T09:36:17;27.55;;;15.93;;
59442;SDS011;45247;47.466;19.004;2022-11-11T09:38:46;24.08;;;13.73;;
59442;SDS011;45247;47.466;19.004;2022-11-11T09:41:17;23.40;;;14.75;;
59442;SDS011;45247;47.466;19.004;2022-11-11T09:43:51;30.88;;;15.90;;
59442;SDS011;45247;47.466;19.004;2022-11-11T09:49:19;24.67;;;13.65;;
59442;SDS011;45247;47.466;19.004;2022-11-11T09:52:03;26.50;;;14.40;;
59442;SDS011;45247;47.466;19.004;2022-11-11T09:54:43;27.13;;;16.10;;
59442;SDS011;45247;47.466;19.004;2022-11-11T09:57:21;27.38;;;15.77;;
59442;SDS011;45247;47.466;19.004;2022-11-11T09:59:55;24.35;;;15.07;;
59442;SDS011;45247;47.466;19.004;2022-11-11T10:02:29;29.47;;;17.17;;
59442;SDS011;45247;47.466;19.004;2022-11-11T10:05:04;26.20;;;14.77;;
59442;SDS011;45247;47.466;19.004;2022-11-11T10:07:39;21.95;;;13.40;;
59442;SDS011;45247;47.466;19.004;2022-11-11T10:10:14;25.50;;;14.32;;
59442;SDS011;45247;47.466;19.004;2022-11-11T10:12:48;26.65;;;15.50;;
59442;SDS011;45247;47.466;19.004;2022-11-11T10:15:21;28.45;;;16.23;;
59442;SDS011;45247;47.466;19.004;2022-11-11T10:17:57;23.90;;;15.00;;
59442;SDS011;45247;47.466;19.004;2022-11-11T10:20:42;24.92;;;13.57;;
59442;SDS011;45247;47.466;19.004;2022-11-11T10:23:17;25.17;;;14.15;;
59442;SDS011;45247;47.466;19.004;2022-11-11T10:25:52;24.45;;;12.88;;
59442;SDS011;45247;47.466;19.004;2022-11-11T10:28:23;23.45;;;12.13;;
59442;SDS011;45247;47.466;19.004;2022-11-11T10:30:55;25.30;;;13.90;;
59442;SDS011;45247;47.466;19.004;2022-11-11T10:33:26;22.80;;;12.52;;
59442;SDS011;45247;47.466;19.004;2022-11-11T10:35:59;26.73;;;13.30;;
59442;SDS011;45247;47.466;19.004;2022-11-11T10:41:04;24.15;;;13.23;;
59442;SDS011;45247;47.466;19.004;2022-11-11T10:43:42;27.20;;;14.95;;
59442;SDS011;45247;47.466;19.004;2022-11-11T10:46:13;28.90;;;15.30;;
59442;SDS011;45247;47.466;19.004;2022-11-11T10:48:49;21.63;;;14.05;;
59442;SDS011;45247;47.466;19.004;2022-11-11T10:51:25;25.90;;;14.15;;
59442;SDS011;45247;47.466;19.004;2022-11-11T10:56:34;25.08;;;14.48;;
59442;SDS011;45247;47.466;19.004;2022-11-11T10:59:11;26.23;;;15.38;;
59442;SDS011;45247;47.466;19.004;2022-11-11T11:01:47;24.25;;;13.45;;
59442;SDS011;45247;47.466;19.004;2022-11-11T11:04:21;22.00;;;13.95;;
59442;SDS011;45247;47.466;19.004;2022-11-11T11:06:55;24.50;;;13.60;;
59442;SDS011;45247;47.466;19.004;2022-11-11T11:09:29;24.48;;;14.07;;
59442;SDS011;45247;47.466;19.004;2022-11-11T11:12:02;20.65;;;13.48;;
59442;SDS011;45247;47.466;19.004;2022-11-11T11:14:36;25.55;;;14.45;;
59442;SDS011;45247;47.466;19.004;2022-11-11T11:17:11;25.20;;;14.05;;
59442;SDS011;45247;47.466;19.004;2022-11-11T11:19:42;23.10;;;13.98;;
59442;SDS011;45247;47.466;19.004;2022-11-11T11:22:10;29.15;;;15.27;;
59442;SDS011;45247;47.466;19.004;2022-11-11T11:24:39;27.55;;;13.93;;
59442;SDS011;45247;47.466;19.004;2022-11-11T11:27:09;26.63;;;14.90;;
59442;SDS011;45247;47.466;19.004;2022-11-11T11:29:39;26.75;;;12.35;;
59442;SDS011;45247;47.466;19.004;2022-11-11T11:32:12;18.92;;;9.27;;
59442;SDS011;45247;47.466;19.004;2022-11-11T11:34:43;17.23;;;9.07;;
59442;SDS011;45247;47.466;19.004;2022-11-11T11:37:13;20.70;;;8.65;;
59442;SDS011;45247;47.466;19.004;2022-11-11T11:39:44;25.00;;;11.68;;
59442;SDS011;45247;47.466;19.004;2022-11-11T11:42:29;16.83;;;10.15;;
59442;SDS011;45247;47.466;19.004;2022-11-11T11:45:14;22.55;;;14.02;;
59442;SDS011;45247;47.466;19.004;2022-11-11T11:47:46;27.25;;;16.20;;
59442;SDS011;45247;47.466;19.004;2022-11-11T11:50:45;30.13;;;15.32;;
59442;SDS011;45247;47.466;19.004;2022-11-11T11:53:37;34.42;;;17.75;;
59442;SDS011;45247;47.466;19.004;2022-11-11T11:56:17;27.17;;;16.35;;
59442;SDS011;45247;47.466;19.004;2022-11-11T11:58:54;30.15;;;17.05;;
59442;SDS011;45247;47.466;19.004;2022-11-11T12:01:30;31.75;;;16.67;;
59442;SDS011;45247;47.466;19.004;2022-11-11T12:07:10;31.05;;;17.15;;
59442;SDS011;45247;47.466;19.004;2022-11-11T12:09:48;37.13;;;16.60;;
59442;SDS011;45247;47.466;19.004;2022-11-11T12:12:28;28.75;;;16.17;;
59442;SDS011;45247;47.466;19.004;2022-11-11T12:15:16;29.63;;;15.80;;
59442;SDS011;45247;47.466;19.004;2022-11-11T12:17:56;29.30;;;15.30;;
59442;SDS011;45247;47.466;19.004;2022-11-11T12:20:37;28.47;;;14.43;;
59442;SDS011;45247;47.466;19.004;2022-11-11T12:23:16;26.15;;;13.10;;
59442;SDS011;45247;47.466;19.004;2022-11-11T12:26:00;24.80;;;14.00;;
59442;SDS011;45247;47.466;19.004;2022-11-11T12:28:42;28.10;;;13.27;;
59442;SDS011;45247;47.466;19.004;2022-11-11T12:31:22;19.48;;;12.10;;
59442;SDS011;45247;47.466;19.004;2022-11-11T12:33:59;18.88;;;10.32;;
59442;SDS011;45247;47.466;19.004;2022-11-11T12:36:39;21.85;;;11.40;;
59442;SDS011;45247;47.466;19.004;2022-11-11T12:39:18;19.70;;;10.18;;
59442;SDS011;45247;47.466;19.004;2022-11-11T12:42:01;18.90;;;7.88;;
59442;SDS011;45247;47.466;19.004;2022-11-11T12:44:44;16.67;;;6.47;;
59442;SDS011;45247;47.466;19.004;2022-11-11T12:47:26;13.38;;;5.50;;
59442;SDS011;45247;47.466;19.004;2022-11-11T12:50:06;8.77;;;4.07;;
59442;SDS011;45247;47.466;19.004;2022-11-11T12:52:47;7.15;;;3.13;;
59442;SDS011;45247;47.466;19.004;2022-11-11T12:55:26;9.25;;;3.60;;
59442;SDS011;45247;47.466;19.004;2022-11-11T12:58:06;18.90;;;4.78;;
59442;SDS011;45247;47.466;19.004;2022-11-11T13:00:52;8.57;;;3.92;;
59442;SDS011;45247;47.466;19.004;2022-11-11T13:06:09;9.05;;;3.70;;
59442;SDS011;45247;47.466;19.004;2022-11-11T13:08:57;8.10;;;3.67;;
59442;SDS011;45247;47.466;19.004;2022-11-11T13:11:53;9.32;;;4.65;;
59442;SDS011;45247;47.466;19.004;2022-11-11T13:14:36;12.30;;;4.10;;
59442;SDS011;45247;47.466;19.004;2022-11-11T13:17:19;9.35;;;3.97;;
59442;SDS011;45247;47.466;19.004;2022-11-11T13:19:49;10.70;;;4.15;;
59442;SDS011;45247;47.466;19.004;2022-11-11T13:22:22;10.43;;;4.35;;
59442;SDS011;45247;47.466;19.004;2022-11-11T13:24:53;9.50;;;5.13;;
59442;SDS011;45247;47.466;19.004;2022-11-11T13:27:27;11.30;;;4.38;;
59442;SDS011;45247;47.466;19.004;2022-11-11T13:33:06;10.13;;;4.20;;
59442;SDS011;45247;47.466;19.004;2022-11-11T13:35:38;13.23;;;4.55;;
59442;SDS011;45247;47.466;19.004;2022-11-11T13:38:12;15.10;;;4.55;;
59442;SDS011;45247;47.466;19.004;2022-11-11T13:40:52;12.98;;;4.50;;
59442;SDS011;45247;47.466;19.004;2022-11-11T13:43:24;10.40;;;4.27;;
59442;SDS011;45247;47.466;19.004;2022-11-11T13:45:57;8.05;;;3.53;;
59442;SDS011;45247;47.466;19.004;2022-11-11T13:48:30;9.55;;;3.65;;
59442;SDS011;45247;47.466;19.004;2022-11-11T13:51:09;10.90;;;3.65;;
59442;SDS011;45247;47.466;19.004;2022-11-11T13:53:40;8.23;;;4.13;;
59442;SDS011;45247;47.466;19.004;2022-11-11T13:56:09;11.00;;;3.67;;
59442;SDS011;45247;47.466;19.004;2022-11-11T13:58:40;12.65;;;5.03;;
59442;SDS011;45247;47.466;19.004;2022-11-11T14:01:14;11.88;;;4.43;;
59442;SDS011;45247;47.466;19.004;2022-11-11T14:15:31;10.52;;;4.35;;
59442;SDS011;45247;47.466;19.004;2022-11-11T14:18:01;10.88;;;4.13;;
59442;SDS011;45247;47.466;19.004;2022-11-11T14:20:37;8.40;;;3.67;;
59442;SDS011;45247;47.466;19.004;2022-11-11T14:23:15;10.35;;;3.60;;
59442;SDS011;45247;47.466;19.004;2022-11-11T14:25:51;11.50;;;3.60;;
59442;SDS011;45247;47.466;19.004;2022-11-11T14:29:02;8.30;;;3.28;;
59442;SDS011;45247;47.466;19.004;2022-11-11T14:34:42;10.85;;;3.70;;
59442;SDS011;45247;47.466;19.004;2022-11-11T14:37:22;10.20;;;3.90;;
59442;SDS011;45247;47.466;19.004;2022-11-11T14:39:58;12.30;;;3.63;;
59442;SDS011;45247;47.466;19.004;2022-11-11T14:51:38;10.73;;;3.70;;
59442;SDS011;45247;47.466;19.004;2022-11-11T14:54:23;8.70;;;4.35;;
59442;SDS011;45247;47.466;19.004;2022-11-11T14:57:15;17.63;;;5.13;;
59442;SDS011;45247;47.466;19.004;2022-11-11T14:59:49;14.85;;;5.55;;
59442;SDS011;45247;47.466;19.004;2022-11-11T15:02:29;13.85;;;5.57;;
59442;SDS011;45247;47.466;19.004;2022-11-11T15:05:01;11.45;;;5.15;;
59442;SDS011;45247;47.466;19.004;2022-11-11T15:07:41;9.32;;;5.45;;
59442;SDS011;45247;47.466;19.004;2022-11-11T15:10:26;18.50;;;7.57;;
59442;SDS011;45247;47.466;19.004;2022-11-11T15:13:06;14.57;;;6.93;;
59442;SDS011;45247;47.466;19.004;2022-11-11T15:15:46;21.60;;;9.18;;
59442;SDS011;45247;47.466;19.004;2022-11-11T15:21:21;15.40;;;8.70;;
59442;SDS011;45247;47.466;19.004;2022-11-11T15:24:00;20.38;;;9.20;;
59442;SDS011;45247;47.466;19.004;2022-11-11T15:27:11;19.75;;;11.05;;
59442;SDS011;45247;47.466;19.004;2022-11-11T15:29:56;15.63;;;10.13;;
59442;SDS011;45247;47.466;19.004;2022-11-11T15:32:32;18.88;;;10.02;;
59442;SDS011;45247;47.466;19.004;2022-11-11T15:35:18;23.90;;;11.00;;